St-Michel-de-Napierville Airport

CMN3 · Quebec, Canada

Storia di METAR CMN3 · St-Michel-de-Napierville Airport

Di seguito sono riportati i METAR degli ultimi giorni. Seleziona un anno per sfogliare i METAR più vecchi, dall'anno 2007 in poi.

19 giugno 2024

Tempo Codice Tempo meteorologico Temp. Vista Base nuvolosa Vento METAR/SPECI
14:00
V
33 °C 15 mi 25.000 ft 230° 230° 12 kt METAR CYUL 191800Z 23012KT 15SM FEW080TCU BKN250 33/23 A3017 RMK TCU1CI5 SLP218 DENSITY ALT 2000FT
13:00
V
33 °C 15 mi 25.000 ft 220° 220° 16 kt METAR CYUL 191700Z 22016KT 15SM FEW070TCU BKN250 33/22 A3018 RMK TCU1CI5 SLP221 DENSITY ALT 1900FT
12:00
V
32 °C 15 mi 25.000 ft 220° 220° 12 kt METAR CYUL 191600Z 22012KT 15SM FEW150 BKN250 32/23 A3019 RMK ACC1CI4 SLP225 DENSITY ALT 1800FT
11:00
V
31 °C 15 mi 25.000 ft 230° 230° 10 kt METAR CYUL 191500Z 23010KT 15SM FEW150 FEW200 BKN250 31/23 A3020 RMK ACC1CC1CI3 SLP227 DENSITY ALT 1700FT
10:00
V
30 °C 15 mi 20.000 ft 230° 230° 10 kt METAR CYUL 191400Z 23010KT 15SM FEW055 FEW150 BKN200 30/23 A3021 RMK CF1ACC1CI4 CF TR SLP231 DENSITY ALT 1500FT
09:00
V
28 °C 15 mi 25.000 ft 230° 230° 9 kt METAR CYUL 191300Z 23009KT 15SM FEW055 FEW110 BKN250 28/23 A3021 RMK SC1AC1CI5 SC TR AC TR SLP231 DENSITY ALT 1400FT
08:00
V
27 °C 15 mi 24.000 ft 220° 220° 7 kt METAR CYUL 191200Z 22007KT 15SM FEW110 BKN240 27/23 A3021 RMK AC1CI4 SLP230 DENSITY ALT 1200FT
07:00
V
26 °C 15 mi 24.000 ft 170° 170° 5 kt METAR CYUL 191100Z 17005KT 160V240 15SM FEW150 BKN240 26/23 A3020 RMK AC2CI4 SLP228 DENSITY ALT 1100FT
06:00
V
25 °C 15 mi 25.000 ft 160° 160° 4 kt METAR CYUL 191000Z 16004KT 15SM FEW150 BKN250 25/23 A3018 RMK AC1CI5 SLP222 DENSITY ALT 1000FT
05:00
V
24 °C 15 mi - 220° 220° 2 kt METAR CYUL 190900Z 22002KT 15SM SCT250 24/22 A3017 RMK CI4 SLP218 DENSITY ALT 900FT
04:00
V
24 °C 15 mi - 260° 260° 3 kt METAR CYUL 190800Z 26003KT 15SM FEW240 24/22 A3016 RMK CI5 SLP213 DENSITY ALT 1000FT
03:00
V
26 °C 15 mi - 220° 220° 5 kt METAR CYUL 190700Z 22005KT 15SM FEW250 26/22 A3015 RMK CI1 CI TR SLP210 DENSITY ALT 1200FT
02:00
V
26 °C 15 mi - 230° 230° 4 kt METAR CYUL 190600Z 23004KT 15SM FEW250 26/22 A3014 RMK CI1 SLP209 DENSITY ALT 1200FT
01:00
V
27 °C 15 mi - 220° 220° 5 kt METAR CYUL 190500Z 22005KT 15SM FEW250 27/23 A3014 RMK CI2 SLP209 DENSITY ALT 1300FT
00:00
V
27 °C 15 mi - 220° 220° 8 kt METAR CYUL 190400Z 22008KT 15SM SCT250 27/23 A3013 RMK CI4 SLP206 DENSITY ALT 1300FT

18 giugno 2024

Tempo Codice Tempo meteorologico Temp. Vista Base nuvolosa Vento METAR/SPECI
23:00
V
28 °C 15 mi 25.000 ft 230° 230° 7 kt METAR CYUL 190300Z 23007KT 15SM FEW150 BKN250 28/22 A3013 RMK AC1CI5 AC TR SLP203 DENSITY ALT 1500FT
22:00
V
29 °C 15 mi - 240° 240° 8 kt METAR CYUL 190200Z 24008KT 15SM FEW150 SCT250 29/23 A3012 RMK AC1CI4 AC TR SLP200 DENSITY ALT 1600FT
21:00
V
30 °C 15 mi 25.000 ft 240° 240° 8 kt METAR CYUL 190100Z 24008KT 15SM FEW100 SCT160 BKN250 30/23 A3011 RMK AC1AC3CI2 AC TR SLP198 DENSITY ALT 1700FT
20:00
V
31 °C 15 mi - 260° 260° 9 kt METAR CYUL 190000Z 26009KT 15SM FEW070TCU FEW120 SCT250 31/23 A3010 RMK TCU1AC2CI2 TCU TR SLP195 DENSITY ALT 1800FT
19:00
V
32 °C 15 mi - 250° 250° 10 kt METAR CYUL 182300Z 25010KT 15SM FEW070TCU SCT250 32/23 A3009 RMK TCU1CI2 SLP190 DENSITY ALT 1900FT
18:00
V
32 °C 15 mi 25.000 ft 240° 240° 10 kt METAR CYUL 182200Z 24010KT 15SM FEW070TCU FEW080 BKN250 32/23 A3008 RMK TCU1AC2CI3 TCU TR SLP189 DENSITY ALT 2000FT
17:00
V
33 °C 15 mi 25.000 ft 230° 230° 10 - 15 kt METAR CYUL 182100Z 23010G15KT 15SM FEW070TCU FEW080 BKN250 33/23 A3010 RMK TCU1AC1CI3 SLP193 DENSITY ALT 2000FT
16:00
V
32 °C 15 mi 25.000 ft 240° 240° 8 kt METAR CYUL 182000Z 24008KT 15SM FEW060 FEW070 BKN250 32/22 A3010 RMK CF1CU1CI4 CF TR SLP196 DENSITY ALT 1900FT
15:00
V
32 °C 15 mi 25.000 ft 230° 230° 9 - 15 kt METAR CYUL 181900Z 23009G15KT 15SM FEW070TCU BKN250 32/22 A3011 RMK TCU1CI4 SLP198 DENSITY ALT 1900FT
14:00
V
31 °C 15 mi 25.000 ft 220° 220° 11 kt METAR CYUL 181800Z 22011KT 15SM FEW070TCU SCT080 BKN250 31/22 A3012 RMK TCU1AC2CI3 SLP201 DENSITY ALT 1800FT
13:00
V
30 °C 15 mi 26.000 ft 230° 230° 12 kt METAR CYUL 181700Z 23012KT 15SM FEW060 FEW065TCU FEW080 FEW240 BKN260 30/22 A3013 RMK CF1TCU1AC1CC1CI4 CF TR CC TR SLP203 DENSITY ALT 1700FT
12:00
V
29 °C 15 mi 26.000 ft 240° 240° 9 - 15 kt METAR CYUL 181600Z 24009G15KT 15SM FEW060 SCT075 SCT240 BKN260 29/21 A3013 RMK CF1AC3CC1CI2 CF TR SLP203 DENSITY ALT 1600FT
11:00
V
28 °C 15 mi 25.000 ft 220° 220° 10 kt METAR CYUL 181500Z 22010KT 15SM BKN250 28/21 A3013 RMK CI7 SLP206 DENSITY ALT 1500FT
10:00
V
26 °C 15 mi 25.000 ft 220° 220° 8 kt METAR CYUL 181400Z 22008KT 15SM BKN250 26/19 A3014 RMK CI7 SLP208 DENSITY ALT 1200FT
09:00
V
25 °C 15 mi 24.000 ft 240° 240° 6 kt METAR CYUL 181300Z 24006KT 200V270 15SM BKN240 25/19 A3014 RMK CI7 SLP209 DENSITY ALT 1100FT
08:00
V
25 °C 15 mi 25.000 ft 240° 240° 4 kt METAR CYUL 181200Z 24004KT 15SM BKN250 25/19 A3013 RMK CI5 SLP203 DENSITY ALT 1100FT
07:00
V
23 °C 15 mi 25.000 ft 250° 250° 4 kt METAR CYUL 181100Z 25004KT 15SM BKN250 23/19 A3012 RMK CI5 SLP200 DENSITY ALT 900FT
06:00
V
23 °C 15 mi 25.000 ft 210° 210° 5 kt METAR CYUL 181000Z 21005KT 15SM BKN250 23/18 A3009 RMK CI6 SLP191 DENSITY ALT 900FT
05:00
V
22 °C 15 mi - 170° 170° 5 kt METAR CYUL 180900Z 17005KT 15SM FEW250 22/18 A3008 RMK CI1 SLP186 DENSITY ALT 900FT
03:00
V
24 °C 15 mi - 210° 210° 4 kt METAR CYUL 180700Z 21004KT 15SM FEW250 24/19 A3004 RMK CI1 CI TR SLP175 DENSITY ALT 1100FT
02:00
V
23 °C 15 mi - 240° 240° 4 kt METAR CYUL 180600Z 24004KT 15SM FEW250 23/19 A3003 RMK CI1 CI TR SLP171 DENSITY ALT 1000FT
01:00
V
25 °C 15 mi - 220° 220° 7 kt METAR CYUL 180500Z 22007KT 15SM FEW250 25/19 A3002 RMK CI1 CI TR SLP169 DENSITY ALT 1200FT
00:00
V
25 °C 15 mi - 220° 220° 6 kt METAR CYUL 180400Z 22006KT 15SM FEW250 25/19 A3003 RMK CI1 CI TR SLP171 DENSITY ALT 1300FT

17 giugno 2024

Tempo Codice Tempo meteorologico Temp. Vista Base nuvolosa Vento METAR/SPECI
23:00
V
26 °C 15 mi - 220° 220° 6 kt METAR CYUL 180300Z 22006KT 15SM FEW110 FEW250 26/19 A3002 RMK AC1CI1 AC TR CI TR SLP166 DENSITY ALT 1400FT
22:00
V
27 °C 15 mi - 200° 200° 6 kt METAR CYUL 180200Z 20006KT 15SM FEW090 FEW250 27/20 A3001 RMK AC1CI1 AC TR SLP163 DENSITY ALT 1500FT
21:00
V
28 °C 15 mi 25.000 ft 200° 200° 7 kt METAR CYUL 180100Z 20007KT 15SM SCT095 BKN250 28/19 A2998 RMK AC3CI2 SLP155 DENSITY ALT 1600FT
20:00
V
29 °C 15 mi 25.000 ft 230° 230° 7 kt METAR CYUL 180000Z 23007KT 15SM SCT085 BKN250 29/19 A2998 RMK AC3CI3 SLP153 DENSITY ALT 1700FT
19:00
V
30 °C 15 mi - 250° 250° 10 - 17 kt METAR CYUL 172300Z 25010G17KT 15SM FEW080 SCT250 30/19 A2997 RMK AC1CI2 SLP151 DENSITY ALT 1900FT
18:00
V
30 °C 15 mi 25.000 ft 240° 240° 12 kt METAR CYUL 172200Z 24012KT 15SM FEW075 BKN250 30/19 A2996 RMK AC2CI3 SLP147 DENSITY ALT 1800FT
17:00
V
30 °C 15 mi 8.000 ft 240° 240° 12 kt METAR CYUL 172100Z 24012KT 15SM BKN080 BKN250 30/18 A2997 RMK AC6CI1 SLP149 DENSITY ALT 1800FT
16:00
V
29 °C 15 mi 8.500 ft 240° 240° 10 kt METAR CYUL 172000Z 24010KT 190V260 15SM FEW040 BKN085 BKN250 29/18 A2997 RMK CF1AC5CI1 CF TR SLP152 DENSITY ALT 1700FT
15:00
V
28 °C 15 mi 25.000 ft 250° 250° 8 kt METAR CYUL 171900Z 25008KT 190V260 15SM FEW030 FEW045 FEW080 BKN250 28/19 A2998 RMK CF1CU1AC1CI3 CF TR SLP155 DENSITY ALT 1600FT
14:00
V
26 °C 15 mi 25.000 ft 230° 230° 7 kt METAR CYUL 171800Z 23007KT 200V270 15SM FEW080 BKN250 26/18 A2999 RMK AC1CI4 SLP158 DENSITY ALT 1400FT
13:00
V
25 °C 15 mi 25.000 ft 190° 190° 9 kt METAR CYUL 171700Z 19009KT 170V240 15SM FEW070 BKN250 25/17 A3000 RMK AC1CI4 SLP162 DENSITY ALT 1200FT
12:00
V
23 °C 15 mi 7.500 ft 190° 190° 9 kt METAR CYUL 171600Z 19009KT 15SM FEW030 BKN075 23/16 A3003 RMK CF1AC7 CF TR SLP171 DENSITY ALT 1000FT
11:00
M
21 °C 15 mi 2.800 ft 240° 240° 8 kt METAR CYUL 171500Z 24008KT 15SM BKN028 BKN075 21/14 A3004 RMK SC6AC1 SLP175 DENSITY ALT 800FT
10:00
V
20 °C 15 mi 5.500 ft 190° 190° 4 kt METAR CYUL 171400Z CCA 19004KT 15SM FEW025 FEW040 BKN055 BKN080 20/13 A3003 RMK CF1SC1SC5AC1 CF TR SLP170 DENSITY ALT 700FT
09:00
V
19 °C 30 mi 8.000 ft 180° 180° 7 kt METAR CYUL 171300Z 18007KT 30SM SCT035 OVC080 19/12 A3004 RMK SC4AC4 SLP174 DENSITY ALT 600FT
08:49
V
19 °C 30 mi 3.800 ft 210° 210° 4 kt METAR CYUL 171249Z 21004KT 120V260 30SM BKN038 OVC085 19/12 A3005 RMK SC6AC2 SLP176 DENSITY ALT 500FT
08:00
V
19 °C 30 mi 4.500 ft 160° 160° 7 kt METAR CYUL 171200Z 16007KT 30SM -SHRA BKN045 OVC063 19/11 A3005 RMK SC6SC2 CVCTV CLD EMBD SLP176 DENSITY ALT 500FT
07:00
V
19 °C 30 mi 12.000 ft 170° 170° 5 kt METAR CYUL 171100Z 17005KT 30SM -SHRA SCT082 OVC120 19/11 A3004 RMK ACC3AC5 CVCTV CLD EMBD SLP174 DENSITY ALT 500FT
06:00
V
18 °C 30 mi 14.000 ft 150° 150° 5 kt METAR CYUL 171000Z 15005KT 30SM BKN140 OVC180 18/10 A3003 RMK AC6AC2 SLP172 DENSITY ALT 400FT
05:00
V
18 °C 30 mi 14.000 ft 130° 130° 6 kt METAR CYUL 170900Z 13006KT 30SM OVC140 18/11 A3003 RMK AC8 SLP172 DENSITY ALT 400FT
04:00
V
18 °C 15 mi 15.000 ft 150° 150° 4 kt METAR CYUL 170800Z 15004KT 15SM OVC150 18/11 A3006 RMK AC8 SLP181 DENSITY ALT 400FT
03:00
V
18 °C 15 mi 15.000 ft 130° 130° 4 kt METAR CYUL 170700Z 13004KT 15SM OVC150 18/10 A3006 RMK AC8 SLP182 DENSITY ALT 400FT
02:00
V
19 °C 15 mi 13.000 ft 160° 160° 4 kt METAR CYUL 170600Z 16004KT 15SM FEW110 OVC130 19/10 A3008 RMK AC1AC7 SLP186 DENSITY ALT 400FT
Segnala modifiche